Terminal Aerodrome Forecast
Issued by NWS Wilmington, NC

Home | Current Version | Previous Version | Text Only | Print | Product List | Glossary On
Versions: 1 2 3 4 5 6 7 8 9 10 11 12 13 14 15 16 17 18 19 20 21 22 23 24 25 26 27 28 29 30 31
654
FTUS42 KILM 220543 CCC
TAFILM
TAF COR
KILM 220543Z 2206/2306 23007KT P6SM SCT025 BKN040
     FM220900 20009KT 5SM -RA SCT007 OVC015
      TEMPO 2209/2213 2SM -RA OVC007
     FM221700 19011KT P6SM VCSH SCT015 OVC030
     FM222200 18012KT 5SM -SHRA BR SCT015 OVC025
     FM230000 17012G18KT 5SM TSRA BR BKN020CB OVC030
      TEMPO 2301/2305 VRB30G45KT 1SM +TSRA BR BKN007 OVC015CB=

USA.gov is the U.S. government's official web portal to all federal, state and local government web resources and services.